createdAt,value
2016-11-07T00:00:43.935Z,996.45
2016-11-07T00:01:43.956Z,996.49
2016-11-07T00:02:43.973Z,996.46
2016-11-07T00:03:43.992Z,996.49
2016-11-07T00:04:44.011Z,996.52
2016-11-07T00:06:44.051Z,996.54
2016-11-07T00:07:44.068Z,996.52
2016-11-07T00:08:44.088Z,996.57
2016-11-07T00:09:44.107Z,996.57
2016-11-07T00:10:44.126Z,996.59
2016-11-07T00:11:44.143Z,996.6
2016-11-07T00:12:44.164Z,996.6
2016-11-07T00:13:44.183Z,996.64
2016-11-07T00:14:44.200Z,996.58
2016-11-07T00:15:44.220Z,996.57
2016-11-07T00:16:44.239Z,996.62
2016-11-07T00:17:44.257Z,996.61
2016-11-07T00:18:44.275Z,996.64
2016-11-07T00:19:44.295Z,996.66
2016-11-07T00:21:44.335Z,996.65
2016-11-07T00:22:44.353Z,996.72
2016-11-07T00:23:44.373Z,996.71
2016-11-07T00:24:44.390Z,996.77
2016-11-07T00:25:44.411Z,996.76
2016-11-07T00:26:44.429Z,996.76
2016-11-07T00:27:44.448Z,996.76
2016-11-07T00:28:44.465Z,996.81
2016-11-07T00:29:44.483Z,996.74
2016-11-07T00:30:44.502Z,996.81
2016-11-07T00:31:44.524Z,996.77
2016-11-07T00:32:44.541Z,996.81
2016-11-07T00:33:44.559Z,996.82
2016-11-07T00:34:44.580Z,996.82
2016-11-07T00:35:44.599Z,996.8
2016-11-07T00:36:44.617Z,996.79
2016-11-07T00:37:44.634Z,996.82
2016-11-07T00:38:44.653Z,996.81
2016-11-07T00:39:44.674Z,996.76
2016-11-07T00:40:44.690Z,996.8
2016-11-07T00:41:44.711Z,996.78
2016-11-07T00:42:44.730Z,996.76
2016-11-07T00:43:44.747Z,996.77
2016-11-07T00:44:44.768Z,996.81
2016-11-07T00:45:44.785Z,996.76
2016-11-07T00:46:44.806Z,996.78
2016-11-07T00:47:44.823Z,996.78
2016-11-07T00:48:44.841Z,996.77
2016-11-07T00:49:44.860Z,996.8
2016-11-07T00:50:44.879Z,996.81
2016-11-07T00:51:44.897Z,996.81
2016-11-07T00:53:44.937Z,996.79
2016-11-07T00:54:44.955Z,996.84
2016-11-07T00:55:44.972Z,996.83
2016-11-07T00:56:44.993Z,996.81
2016-11-07T00:57:45.012Z,996.79
2016-11-07T00:58:45.033Z,996.8
2016-11-07T00:59:45.049Z,996.77
2016-11-07T01:00:45.066Z,996.78
2016-11-07T01:01:45.090Z,996.79
2016-11-07T01:02:45.105Z,996.81
2016-11-07T01:03:45.121Z,996.78
2016-11-07T01:04:45.141Z,996.82
2016-11-07T01:05:45.160Z,996.8
2016-11-07T01:06:45.180Z,996.81
2016-11-07T01:07:45.199Z,996.79
2016-11-07T01:09:45.235Z,996.8
2016-11-07T01:10:45.252Z,996.79
2016-11-07T01:11:45.271Z,996.8
2016-11-07T01:12:45.292Z,996.82
2016-11-07T01:13:45.308Z,996.77
2016-11-07T01:14:45.327Z,996.79
2016-11-07T01:15:45.348Z,996.78
2016-11-07T01:16:45.367Z,996.77
2016-11-07T01:17:45.383Z,996.8
2016-11-07T01:18:45.402Z,996.8
2016-11-07T01:19:45.423Z,996.76
2016-11-07T01:20:45.442Z,996.78
2016-11-07T01:21:45.460Z,996.78
2016-11-07T01:22:45.477Z,996.8
2016-11-07T01:23:45.496Z,996.78
2016-11-07T01:25:45.532Z,996.78
2016-11-07T01:26:45.551Z,996.81
2016-11-07T01:27:45.570Z,996.79
2016-11-07T01:28:45.590Z,996.82
2016-11-07T01:29:45.607Z,996.82
2016-11-07T01:30:45.626Z,996.83
2016-11-07T01:31:45.645Z,996.86
2016-11-07T01:32:45.665Z,996.83
2016-11-07T01:33:45.684Z,996.87
2016-11-07T01:34:45.703Z,996.85
2016-11-07T01:35:45.721Z,996.88
2016-11-07T01:36:45.740Z,996.92
2016-11-07T01:37:45.759Z,996.9
2016-11-07T01:38:45.775Z,996.91
2016-11-07T01:39:45.796Z,996.91
2016-11-07T01:41:45.833Z,996.9
2016-11-07T01:42:45.850Z,996.92
2016-11-07T01:43:45.868Z,996.92
2016-11-07T01:44:45.887Z,996.92
2016-11-07T01:45:45.906Z,996.94
2016-11-07T01:46:45.923Z,996.94
2016-11-07T01:47:45.942Z,996.97
2016-11-07T01:48:45.962Z,996.98
2016-11-07T01:49:45.980Z,997.03
2016-11-07T01:50:45.998Z,997.01
2016-11-07T01:51:46.018Z,996.97
2016-11-07T01:52:46.038Z,997
2016-11-07T01:53:46.057Z,997.02
2016-11-07T01:54:46.076Z,997.03
2016-11-07T01:56:46.111Z,997.03
2016-11-07T01:57:46.131Z,996.99
2016-11-07T01:58:46.150Z,996.97
2016-11-07T01:59:46.167Z,996.97
2016-11-07T02:00:46.188Z,997
2016-11-07T02:01:46.204Z,996.99
2016-11-07T02:02:46.224Z,997.02
2016-11-07T02:03:46.241Z,997
2016-11-07T02:04:46.261Z,996.96
2016-11-07T02:05:46.278Z,996.95
2016-11-07T02:06:46.297Z,996.94
2016-11-07T02:07:46.318Z,996.97
2016-11-07T02:08:46.336Z,996.97
2016-11-07T02:09:46.353Z,997.01
2016-11-07T02:10:46.374Z,997.03
2016-11-07T02:11:46.392Z,997.01
2016-11-07T02:12:46.408Z,997.04
2016-11-07T02:13:46.427Z,997.04
2016-11-07T02:14:46.446Z,997
2016-11-07T02:15:46.466Z,997.03
2016-11-07T02:16:46.485Z,997.02
2016-11-07T02:17:46.501Z,997.03
2016-11-07T02:18:46.520Z,997.01
2016-11-07T02:19:46.539Z,997.05
2016-11-07T02:20:46.559Z,997.06
2016-11-07T02:21:46.578Z,997.07
2016-11-07T02:22:46.595Z,997.1
2016-11-07T02:23:46.615Z,997.08
2016-11-07T02:24:46.632Z,997.06
2016-11-07T02:25:46.657Z,997.04
2016-11-07T02:26:46.669Z,997.03
2016-11-07T02:28:46.706Z,997.05
2016-11-07T02:29:46.725Z,997.06
2016-11-07T02:30:46.743Z,997.08
2016-11-07T02:31:46.764Z,997.07
2016-11-07T02:32:46.784Z,997.06
2016-11-07T02:33:46.800Z,997.09
2016-11-07T02:34:46.819Z,997.11
2016-11-07T02:35:46.836Z,997.11
2016-11-07T02:36:46.857Z,997.13
2016-11-07T02:37:46.875Z,997.14
2016-11-07T02:38:46.894Z,997.18
2016-11-07T02:39:46.913Z,997.22
2016-11-07T02:40:46.929Z,997.17
2016-11-07T02:41:46.949Z,997.16
2016-11-07T02:42:46.966Z,997.19
2016-11-07T02:44:47.004Z,997.23
2016-11-07T02:45:47.026Z,997.18
2016-11-07T02:46:47.043Z,997.24
2016-11-07T02:47:47.060Z,997.23
2016-11-07T02:48:47.079Z,997.23
2016-11-07T02:49:47.099Z,997.24
2016-11-07T02:50:47.117Z,997.31
2016-11-07T02:51:47.134Z,997.26
2016-11-07T02:52:47.152Z,997.27
2016-11-07T02:53:47.173Z,997.29
2016-11-07T02:54:47.190Z,997.33
2016-11-07T02:55:47.210Z,997.34
2016-11-07T02:56:47.226Z,997.28
2016-11-07T02:57:47.245Z,997.31
2016-11-07T02:58:47.266Z,997.34
2016-11-07T03:00:47.301Z,997.28
2016-11-07T03:01:47.321Z,997.36
2016-11-07T03:02:47.339Z,997.35
2016-11-07T03:03:47.358Z,997.33
2016-11-07T03:04:47.378Z,997.33
2016-11-07T03:05:47.396Z,997.37
2016-11-07T03:06:47.416Z,997.39
2016-11-07T03:07:47.433Z,997.35
2016-11-07T03:08:47.450Z,997.35
2016-11-07T03:09:47.469Z,997.35
2016-11-07T03:10:47.489Z,997.36
2016-11-07T03:11:47.505Z,997.37
2016-11-07T03:12:47.524Z,997.35
2016-11-07T03:13:47.543Z,997.34
2016-11-07T03:14:47.561Z,997.31
2016-11-07T03:16:47.600Z,997.33
2016-11-07T03:17:47.617Z,997.31
2016-11-07T03:18:47.637Z,997.32
2016-11-07T03:19:47.654Z,997.33
2016-11-07T03:20:47.677Z,997.27
2016-11-07T03:21:47.692Z,997.29
2016-11-07T03:22:47.710Z,997.31
2016-11-07T03:23:47.728Z,997.3
2016-11-07T03:24:47.747Z,997.33
2016-11-07T03:25:47.767Z,997.33
2016-11-07T03:26:47.784Z,997.31
2016-11-07T03:27:47.804Z,997.34
2016-11-07T03:28:47.823Z,997.38
2016-11-07T03:29:47.843Z,997.33
2016-11-07T03:31:47.880Z,997.35
2016-11-07T03:32:47.898Z,997.37
2016-11-07T03:33:47.917Z,997.36
2016-11-07T03:34:47.936Z,997.37
2016-11-07T03:35:47.954Z,997.4
2016-11-07T03:36:47.972Z,997.41
2016-11-07T03:37:47.990Z,997.39
2016-11-07T03:38:48.008Z,997.37
2016-11-07T03:39:48.027Z,997.41
2016-11-07T03:40:48.045Z,997.44
2016-11-07T03:41:48.062Z,997.43
2016-11-07T03:42:48.081Z,997.45
2016-11-07T03:43:48.099Z,997.5
2016-11-07T03:44:48.118Z,997.48
2016-11-07T03:45:48.136Z,997.49
2016-11-07T03:46:48.155Z,997.5
2016-11-07T03:47:48.182Z,997.52
2016-11-07T03:48:48.192Z,997.57
2016-11-07T03:49:48.211Z,997.52
2016-11-07T03:50:48.230Z,997.56
2016-11-07T03:51:48.248Z,997.53
2016-11-07T03:52:48.266Z,997.54
2016-11-07T03:53:48.284Z,997.57
2016-11-07T03:54:48.304Z,997.64
2016-11-07T03:55:48.323Z,997.59
2016-11-07T03:56:48.342Z,997.59
2016-11-07T03:57:48.360Z,997.63
2016-11-07T03:58:48.377Z,997.62
2016-11-07T03:59:48.395Z,997.61
2016-11-07T04:00:48.413Z,997.6
2016-11-07T04:01:48.432Z,997.61
2016-11-07T04:03:48.470Z,997.61
2016-11-07T04:04:48.487Z,997.65
2016-11-07T04:05:48.506Z,997.62
2016-11-07T04:06:48.523Z,997.64
2016-11-07T04:07:48.551Z,997.66
2016-11-07T04:08:48.560Z,997.65
2016-11-07T04:09:48.580Z,997.66
2016-11-07T04:10:48.598Z,997.68
2016-11-07T04:11:48.615Z,997.66
2016-11-07T04:12:48.632Z,997.69
2016-11-07T04:13:48.651Z,997.69
2016-11-07T04:14:48.670Z,997.69
2016-11-07T04:15:48.688Z,997.69
2016-11-07T04:16:48.707Z,997.72
2016-11-07T04:17:48.724Z,997.67
2016-11-07T04:19:48.764Z,997.7
2016-11-07T04:20:48.779Z,997.72
2016-11-07T04:21:48.800Z,997.72
2016-11-07T04:22:48.818Z,997.67
2016-11-07T04:23:48.834Z,997.74
2016-11-07T04:24:48.855Z,997.76
2016-11-07T04:25:48.871Z,997.73
2016-11-07T04:26:48.892Z,997.73
2016-11-07T04:27:48.909Z,997.75
2016-11-07T04:28:48.925Z,997.7
2016-11-07T04:29:48.946Z,997.72
2016-11-07T04:30:48.965Z,997.76
2016-11-07T04:31:48.981Z,997.77
2016-11-07T04:32:49.001Z,997.73
2016-11-07T04:33:49.020Z,997.72
2016-11-07T04:35:49.056Z,997.77
2016-11-07T04:36:49.074Z,997.75
2016-11-07T04:37:49.093Z,997.76
2016-11-07T04:38:49.111Z,997.75
2016-11-07T04:39:49.127Z,997.78
2016-11-07T04:40:49.148Z,997.74
2016-11-07T04:41:49.166Z,997.74
2016-11-07T04:42:49.184Z,997.81
2016-11-07T04:43:49.203Z,997.77
2016-11-07T04:44:49.223Z,997.81
2016-11-07T04:45:49.237Z,997.78
2016-11-07T04:46:49.255Z,997.8
2016-11-07T04:47:49.274Z,997.82
2016-11-07T04:48:49.294Z,997.75
2016-11-07T04:49:49.312Z,997.76
2016-11-07T04:51:49.350Z,997.78
2016-11-07T04:52:49.366Z,997.75
2016-11-07T04:53:49.386Z,997.76
2016-11-07T04:54:49.405Z,997.78
2016-11-07T04:55:49.421Z,997.79
2016-11-07T04:56:49.438Z,997.8
2016-11-07T04:57:49.457Z,997.82
2016-11-07T04:58:49.476Z,997.81
2016-11-07T04:59:49.496Z,997.83
2016-11-07T05:00:49.512Z,997.84
2016-11-07T05:01:49.533Z,997.83
2016-11-07T05:02:49.552Z,997.82
2016-11-07T05:03:49.569Z,997.86
2016-11-07T05:04:49.589Z,997.88
2016-11-07T05:06:49.625Z,997.88
2016-11-07T05:07:49.645Z,997.89
2016-11-07T05:08:49.661Z,997.94
2016-11-07T05:09:49.682Z,997.91
2016-11-07T05:10:49.701Z,997.93
2016-11-07T05:11:49.717Z,997.88
2016-11-07T05:12:49.737Z,997.9
2016-11-07T05:13:49.756Z,997.89
2016-11-07T05:14:49.774Z,997.92
2016-11-07T05:15:49.792Z,997.95
2016-11-07T05:16:49.811Z,997.98
2016-11-07T05:17:49.828Z,997.98
2016-11-07T05:18:49.845Z,997.94
2016-11-07T05:19:49.866Z,998.01
2016-11-07T05:20:49.882Z,998
2016-11-07T05:21:49.903Z,998.03
2016-11-07T05:22:49.919Z,998.03
2016-11-07T05:23:49.939Z,998.01
2016-11-07T05:24:49.956Z,998.04
2016-11-07T05:25:49.974Z,998.07
2016-11-07T05:26:49.993Z,998.07
2016-11-07T05:27:50.012Z,998.06
2016-11-07T05:28:50.030Z,998.1
2016-11-07T05:29:50.048Z,998.11
2016-11-07T05:30:50.069Z,998.11
2016-11-07T05:31:50.085Z,998.15
2016-11-07T05:32:50.106Z,998.1
2016-11-07T05:33:50.124Z,998.11
2016-11-07T05:34:50.140Z,998.15
2016-11-07T05:35:50.161Z,998.12
2016-11-07T05:36:50.177Z,998.11
2016-11-07T05:38:50.216Z,998.11
2016-11-07T05:39:50.235Z,998.13
2016-11-07T05:40:50.250Z,998.16
2016-11-07T05:41:50.270Z,998.14
2016-11-07T05:42:50.288Z,998.15
2016-11-07T05:43:50.309Z,998.19
2016-11-07T05:44:50.326Z,998.15
2016-11-07T05:45:50.343Z,998.25
2016-11-07T05:46:50.361Z,998.23
2016-11-07T05:47:50.381Z,998.24
2016-11-07T05:48:50.398Z,998.27
2016-11-07T05:49:50.417Z,998.28
2016-11-07T05:50:50.435Z,998.24
2016-11-07T05:51:50.453Z,998.31
2016-11-07T05:52:50.472Z,998.3
2016-11-07T05:54:50.511Z,998.34
2016-11-07T05:55:50.527Z,998.37
2016-11-07T05:56:50.548Z,998.4
2016-11-07T05:57:50.566Z,998.38
2016-11-07T05:58:50.582Z,998.41
2016-11-07T05:59:50.603Z,998.38
2016-11-07T06:00:50.621Z,998.4
2016-11-07T06:01:50.638Z,998.39
2016-11-07T06:02:50.658Z,998.39
2016-11-07T06:03:50.674Z,998.39
2016-11-07T06:04:50.693Z,998.38
2016-11-07T06:05:50.714Z,998.41
2016-11-07T06:06:50.729Z,998.44
2016-11-07T06:07:50.748Z,998.46
2016-11-07T06:08:50.767Z,998.48
2016-11-07T06:10:50.805Z,998.5
2016-11-07T06:11:50.822Z,998.49
2016-11-07T06:12:50.840Z,998.51
2016-11-07T06:13:50.860Z,998.52
2016-11-07T06:14:50.879Z,998.54
2016-11-07T06:15:50.898Z,998.52
2016-11-07T06:16:50.916Z,998.59
2016-11-07T06:17:50.932Z,998.54
2016-11-07T06:18:50.952Z,998.56
2016-11-07T06:19:50.971Z,998.54
2016-11-07T06:20:50.989Z,998.56
2016-11-07T06:21:51.007Z,998.57
2016-11-07T06:22:51.023Z,998.54
2016-11-07T06:23:51.044Z,998.58
2016-11-07T06:24:51.060Z,998.59
2016-11-07T06:26:51.098Z,998.63
2016-11-07T06:27:51.116Z,998.63
2016-11-07T06:28:51.135Z,998.61
2016-11-07T06:29:51.154Z,998.64
2016-11-07T06:30:51.172Z,998.66
2016-11-07T06:31:51.192Z,998.67
2016-11-07T06:32:51.209Z,998.67
2016-11-07T06:33:51.228Z,998.66
2016-11-07T06:34:51.244Z,998.7
2016-11-07T06:35:51.264Z,998.68
2016-11-07T06:36:51.283Z,998.67
2016-11-07T06:37:51.299Z,998.72
2016-11-07T06:38:51.320Z,998.7
2016-11-07T06:39:51.336Z,998.77
2016-11-07T06:41:51.374Z,998.76
2016-11-07T06:42:51.393Z,998.77
2016-11-07T06:43:51.410Z,998.78
2016-11-07T06:44:51.434Z,998.81
2016-11-07T06:45:51.450Z,998.82
2016-11-07T06:46:51.467Z,998.83
2016-11-07T06:47:51.486Z,998.82
2016-11-07T06:48:51.504Z,998.86
2016-11-07T06:49:51.520Z,998.93
2016-11-07T06:50:51.539Z,998.89
2016-11-07T06:51:51.557Z,998.89
2016-11-07T06:52:51.578Z,998.89
2016-11-07T06:53:51.595Z,998.85
2016-11-07T06:54:51.615Z,998.89
2016-11-07T06:55:51.631Z,998.91
2016-11-07T06:56:51.650Z,998.92
2016-11-07T06:57:51.670Z,998.92
2016-11-07T06:58:51.688Z,998.94
2016-11-07T06:59:51.707Z,998.93
2016-11-07T07:00:51.724Z,998.93
2016-11-07T07:01:51.742Z,998.95
2016-11-07T07:02:51.762Z,998.97
2016-11-07T07:03:51.781Z,998.99
2016-11-07T07:04:51.797Z,998.98
2016-11-07T07:05:51.818Z,998.99
2016-11-07T07:06:51.836Z,998.98
2016-11-07T07:07:51.855Z,998.99
2016-11-07T07:08:51.871Z,998.97
2016-11-07T07:09:51.890Z,999
2016-11-07T07:10:51.908Z,999.03
2016-11-07T07:11:51.927Z,999.04
2016-11-07T07:13:51.966Z,999.03
2016-11-07T07:14:51.982Z,999.02
2016-11-07T07:15:52.001Z,999.03
2016-11-07T07:16:52.021Z,999.07
2016-11-07T07:17:52.039Z,999
2016-11-07T07:18:52.060Z,999.01
2016-11-07T07:19:52.076Z,998.99
2016-11-07T07:20:52.093Z,998.99
2016-11-07T07:21:52.113Z,999.02
2016-11-07T07:22:52.129Z,999.01
2016-11-07T07:23:52.148Z,999.01
2016-11-07T07:24:52.167Z,999.01
2016-11-07T07:25:52.187Z,999.06
2016-11-07T07:26:52.205Z,999.06
2016-11-07T07:27:52.224Z,999.05
2016-11-07T07:29:52.259Z,999.09
2016-11-07T07:30:52.278Z,999.15
2016-11-07T07:31:52.298Z,999.09
2016-11-07T07:32:52.314Z,999.09
2016-11-07T07:33:52.332Z,999.13
2016-11-07T07:34:52.356Z,999.1
2016-11-07T07:35:52.370Z,999.15
2016-11-07T07:36:52.388Z,999.11
2016-11-07T07:37:52.408Z,999.13
2016-11-07T07:38:52.442Z,999.17
2016-11-07T07:39:52.444Z,999.17
2016-11-07T07:40:52.462Z,999.19
2016-11-07T07:41:52.480Z,999.22
2016-11-07T07:42:52.499Z,999.19
2016-11-07T07:43:52.519Z,999.21
2016-11-07T07:45:52.554Z,999.23
2016-11-07T07:46:52.575Z,999.23
2016-11-07T07:47:52.592Z,999.23
2016-11-07T07:48:52.611Z,999.28
2016-11-07T07:49:52.628Z,999.26
2016-11-07T07:50:52.649Z,999.29
2016-11-07T07:51:52.668Z,999.35
2016-11-07T07:52:52.685Z,999.36
2016-11-07T07:53:52.705Z,999.35
2016-11-07T07:54:52.721Z,999.34
2016-11-07T07:55:52.739Z,999.38
2016-11-07T07:56:52.759Z,999.37
2016-11-07T07:57:52.778Z,999.38
2016-11-07T07:58:52.797Z,999.4
2016-11-07T07:59:52.815Z,999.42
2016-11-07T08:01:52.852Z,999.45
2016-11-07T08:02:52.871Z,999.47
2016-11-07T08:03:52.892Z,999.48
2016-11-07T08:04:52.906Z,999.5
2016-11-07T08:05:52.927Z,999.52
2016-11-07T08:06:52.945Z,999.52
2016-11-07T08:07:52.963Z,999.56
2016-11-07T08:08:52.980Z,999.53
2016-11-07T08:09:52.999Z,999.57
2016-11-07T08:10:53.017Z,999.6
2016-11-07T08:11:53.038Z,999.58
2016-11-07T08:12:53.057Z,999.64
2016-11-07T08:13:53.074Z,999.59
2016-11-07T08:14:53.093Z,999.58
2016-11-07T08:16:53.133Z,999.6
2016-11-07T08:17:53.151Z,999.62
2016-11-07T08:18:53.168Z,999.62
2016-11-07T08:19:53.189Z,999.64
2016-11-07T08:20:53.208Z,999.64
2016-11-07T08:21:53.226Z,999.62
2016-11-07T08:22:53.245Z,999.66
2016-11-07T08:23:53.262Z,999.63
2016-11-07T08:24:53.280Z,999.63
2016-11-07T08:25:53.305Z,999.65
2016-11-07T08:26:53.319Z,999.68
2016-11-07T08:27:53.338Z,999.67
2016-11-07T08:28:53.358Z,999.68
2016-11-07T08:29:53.377Z,999.72
2016-11-07T08:30:53.395Z,999.71
2016-11-07T08:31:53.416Z,999.7
2016-11-07T08:32:53.431Z,999.7
2016-11-07T08:33:53.451Z,999.73
2016-11-07T08:34:53.473Z,999.72
2016-11-07T08:35:53.488Z,999.75
2016-11-07T08:36:53.507Z,999.74
2016-11-07T08:37:53.528Z,999.76
2016-11-07T08:38:53.545Z,999.72
2016-11-07T08:39:53.566Z,999.76
2016-11-07T08:40:53.593Z,999.74
2016-11-07T08:41:53.601Z,999.73
2016-11-07T08:42:53.621Z,999.72
2016-11-07T08:43:53.639Z,999.79
2016-11-07T08:44:53.658Z,999.77
2016-11-07T08:45:53.679Z,999.76
2016-11-07T08:46:53.702Z,999.8
2016-11-07T08:48:53.733Z,999.82
2016-11-07T08:49:53.758Z,999.85
2016-11-07T08:50:53.772Z,999.88
2016-11-07T08:51:53.789Z,999.87
2016-11-07T08:52:53.810Z,999.94
2016-11-07T08:53:53.827Z,999.93
2016-11-07T08:54:53.847Z,999.94
2016-11-07T08:55:53.866Z,999.95
2016-11-07T08:56:53.883Z,999.93
2016-11-07T08:57:53.903Z,999.96
2016-11-07T08:58:53.922Z,999.99
2016-11-07T08:59:53.941Z,1000.02
2016-11-07T09:00:53.960Z,1000.04
2016-11-07T09:01:53.978Z,1000.04
2016-11-07T09:02:53.995Z,1000.03
2016-11-07T09:04:54.033Z,1000.09
2016-11-07T09:05:54.053Z,1000.07
2016-11-07T09:06:54.072Z,1000.11
2016-11-07T09:07:54.090Z,1000.07
2016-11-07T09:08:54.108Z,1000.17
2016-11-07T09:09:54.127Z,1000.18
2016-11-07T09:10:54.147Z,1000.17
2016-11-07T09:11:54.166Z,1000.16
2016-11-07T09:12:54.185Z,1000.18
2016-11-07T09:13:54.205Z,1000.22
2016-11-07T09:14:54.222Z,1000.17
2016-11-07T09:15:54.244Z,1000.22
2016-11-07T09:16:54.262Z,1000.26
2016-11-07T09:17:54.279Z,1000.28
2016-11-07T09:18:54.300Z,1000.23
2016-11-07T09:20:54.336Z,1000.29
2016-11-07T09:21:54.356Z,1000.29
2016-11-07T09:22:54.377Z,1000.31
2016-11-07T09:23:54.546Z,1000.32
2016-11-07T09:24:54.413Z,1000.32
2016-11-07T09:25:54.433Z,1000.31
2016-11-07T09:26:54.453Z,1000.32
2016-11-07T09:27:54.471Z,1000.33
2016-11-07T09:28:54.491Z,1000.33
2016-11-07T09:29:54.520Z,1000.34
2016-11-07T09:30:54.529Z,1000.34
2016-11-07T09:31:54.551Z,1000.38
2016-11-07T09:32:54.568Z,1000.34
2016-11-07T09:33:54.589Z,1000.38
2016-11-07T09:34:54.608Z,1000.34
2016-11-07T09:36:54.645Z,1000.42
2016-11-07T09:37:54.666Z,1000.38
2016-11-07T09:38:54.685Z,1000.43
2016-11-07T09:39:54.705Z,1000.42
2016-11-07T09:40:54.724Z,1000.42
2016-11-07T09:41:54.747Z,1000.45
2016-11-07T09:42:54.760Z,1000.46
2016-11-07T09:43:54.780Z,1000.47
2016-11-07T09:44:54.799Z,1000.47
2016-11-07T09:45:54.818Z,1000.49
2016-11-07T09:46:54.836Z,1000.52
2016-11-07T09:47:54.858Z,1000.53
2016-11-07T09:48:54.877Z,1000.55
2016-11-07T09:49:54.897Z,1000.51
2016-11-07T09:51:54.933Z,1000.54
2016-11-07T09:52:54.954Z,1000.55
2016-11-07T09:53:54.971Z,1000.56
2016-11-07T09:54:54.992Z,1000.54
2016-11-07T09:55:55.012Z,1000.55
2016-11-07T09:56:55.028Z,1000.55
2016-11-07T09:57:55.047Z,1000.53
2016-11-07T09:58:55.069Z,1000.56
2016-11-07T09:59:55.085Z,1000.57
2016-11-07T10:00:55.107Z,1000.59
2016-11-07T10:01:55.126Z,1000.54
2016-11-07T10:02:55.144Z,1000.58
2016-11-07T10:03:55.165Z,1000.63
2016-11-07T10:04:55.181Z,1000.68
2016-11-07T10:05:55.203Z,1000.63
2016-11-07T10:06:55.221Z,1000.68
2016-11-07T10:07:55.240Z,1000.61
2016-11-07T10:08:55.259Z,1000.66
2016-11-07T10:09:55.278Z,1000.69
2016-11-07T10:10:55.297Z,1000.66
2016-11-07T10:11:55.319Z,1000.64
2016-11-07T10:12:55.338Z,1000.65
2016-11-07T10:13:55.358Z,1000.67
2016-11-07T10:14:55.375Z,1000.66
2016-11-07T10:15:55.394Z,1000.67
2016-11-07T10:16:55.414Z,1000.63
2016-11-07T10:17:55.436Z,1000.63
2016-11-07T10:18:55.453Z,1000.61
2016-11-07T10:19:55.473Z,1000.63
2016-11-07T10:20:55.492Z,1000.63
2016-11-07T10:21:55.511Z,1000.65
2016-11-07T10:23:55.553Z,1000.61
2016-11-07T10:24:55.570Z,1000.66
2016-11-07T10:25:55.589Z,1000.64
2016-11-07T10:26:55.609Z,1000.63
2016-11-07T10:27:55.631Z,1000.61
2016-11-07T10:28:55.650Z,1000.62
2016-11-07T10:29:55.667Z,1000.6
2016-11-07T10:30:55.689Z,1000.67
2016-11-07T10:31:55.709Z,1000.66
2016-11-07T10:32:55.728Z,1000.69
2016-11-07T10:33:55.748Z,1000.67
2016-11-07T10:34:55.765Z,1000.71
2016-11-07T10:35:55.787Z,1000.65
2016-11-07T10:36:55.804Z,1000.69
2016-11-07T10:37:55.826Z,1000.65
2016-11-07T10:39:55.863Z,1000.71
2016-11-07T10:40:55.882Z,1000.71
2016-11-07T10:41:55.901Z,1000.66
2016-11-07T10:42:55.923Z,1000.69
2016-11-07T10:43:55.941Z,1000.64
2016-11-07T10:44:55.961Z,1000.79
2016-11-07T10:45:55.978Z,1000.72
2016-11-07T10:46:55.998Z,1000.71
2016-11-07T10:47:56.035Z,1000.69
2016-11-07T10:48:56.036Z,1000.7
2016-11-07T10:49:56.056Z,1000.7
2016-11-07T10:50:56.077Z,1000.74
2016-11-07T10:51:56.095Z,1000.75
2016-11-07T10:52:56.115Z,1000.71
2016-11-07T10:53:56.133Z,1000.8
2016-11-07T10:55:56.170Z,1000.8
2016-11-07T10:56:56.191Z,1000.78
2016-11-07T10:57:56.209Z,1000.74
2016-11-07T10:58:56.229Z,1000.78
2016-11-07T10:59:56.246Z,1000.81
2016-11-07T11:00:56.266Z,1000.79
2016-11-07T11:01:56.288Z,1000.8
2016-11-07T11:02:56.308Z,1000.77
2016-11-07T11:03:56.325Z,1000.83
2016-11-07T11:04:56.343Z,1000.83
2016-11-07T11:05:56.363Z,1000.8
2016-11-07T11:06:56.381Z,1000.84
2016-11-07T11:07:56.400Z,1000.83
2016-11-07T11:08:56.420Z,1000.83
2016-11-07T11:09:56.438Z,1000.83
2016-11-07T11:11:56.479Z,1000.86
2016-11-07T11:12:56.497Z,1000.87
2016-11-07T11:13:56.515Z,1000.95
2016-11-07T11:14:56.537Z,1000.92
2016-11-07T11:15:56.554Z,1000.89
2016-11-07T11:16:56.575Z,1000.93
2016-11-07T11:17:56.594Z,1000.9
2016-11-07T11:18:56.614Z,1000.89
2016-11-07T11:19:56.631Z,1000.92
2016-11-07T11:20:56.651Z,1000.9
2016-11-07T11:21:56.669Z,1000.94
2016-11-07T11:22:56.691Z,1000.92
2016-11-07T11:23:56.708Z,1000.94
2016-11-07T11:24:56.730Z,1000.94
2016-11-07T11:26:56.768Z,1000.99
2016-11-07T11:27:56.786Z,1000.96
2016-11-07T11:28:56.808Z,1000.97
2016-11-07T11:29:56.826Z,1001
2016-11-07T11:30:56.847Z,1000.98
2016-11-07T11:31:56.866Z,1000.95
2016-11-07T11:32:56.884Z,1000.97
2016-11-07T11:33:56.905Z,1000.99
2016-11-07T11:34:56.924Z,1001
2016-11-07T11:35:56.942Z,1001.02
2016-11-07T11:36:56.962Z,1001.04
2016-11-07T11:37:56.981Z,1001.01
2016-11-07T11:38:57.000Z,1001
2016-11-07T11:39:57.020Z,1001.02
2016-11-07T11:40:57.039Z,1001.06
2016-11-07T11:41:57.059Z,1001.05
2016-11-07T11:42:57.080Z,1001.11
2016-11-07T11:43:57.098Z,1001.08
2016-11-07T11:44:57.118Z,1001.07
2016-11-07T11:45:57.138Z,1001
2016-11-07T11:46:57.158Z,1001.06
2016-11-07T11:47:57.177Z,1001.07
2016-11-07T11:48:57.198Z,1001.02
2016-11-07T11:49:57.216Z,1001.03
2016-11-07T11:50:57.234Z,1001.03
2016-11-07T11:51:57.254Z,1001.09
2016-11-07T11:52:57.276Z,1001
2016-11-07T11:53:57.292Z,1001.05
2016-11-07T11:54:57.312Z,1001.03
2016-11-07T11:55:57.332Z,1001.05
2016-11-07T11:56:57.352Z,1001.06
2016-11-07T11:58:57.390Z,1001.08
2016-11-07T11:59:57.412Z,1001.08
2016-11-07T12:00:57.431Z,1001.06
2016-11-07T12:01:57.450Z,1001.07
2016-11-07T12:02:57.470Z,1001.1
2016-11-07T12:03:57.488Z,1001.11
2016-11-07T12:04:57.506Z,1001.1
2016-11-07T12:05:57.528Z,1001.11
2016-11-07T12:06:57.548Z,1001.12
2016-11-07T12:07:57.565Z,1001.08
2016-11-07T12:08:57.584Z,1001.15
2016-11-07T12:09:57.609Z,1001.11
2016-11-07T12:10:57.626Z,1001.14
2016-11-07T12:11:57.642Z,1001.23
2016-11-07T12:12:57.662Z,1001.13
2016-11-07T12:14:57.701Z,1001.16
2016-11-07T12:15:57.722Z,1001.11
2016-11-07T12:16:57.742Z,1001.11
2016-11-07T12:17:57.760Z,1001.04
2016-11-07T12:18:57.779Z,1001.11
2016-11-07T12:19:57.800Z,1001.14
2016-11-07T12:20:57.819Z,1001.11
2016-11-07T12:21:57.839Z,1001.15
2016-11-07T12:22:57.857Z,1001.14
2016-11-07T12:23:57.877Z,1001.18
2016-11-07T12:24:57.894Z,1001.16
2016-11-07T12:25:57.914Z,1001.16
2016-11-07T12:26:57.935Z,1001.17
2016-11-07T12:27:57.953Z,1001.19
2016-11-07T12:28:57.972Z,1001.21
2016-11-07T12:30:58.011Z,1001.19
2016-11-07T12:31:58.033Z,1001.21
2016-11-07T12:32:58.053Z,1001.19
2016-11-07T12:33:58.069Z,1001.2
2016-11-07T12:34:58.092Z,1001.23
2016-11-07T12:35:58.211Z,1001.22
2016-11-07T12:36:58.128Z,1001.24
2016-11-07T12:37:58.147Z,1001.3
2016-11-07T12:38:58.169Z,1001.31
2016-11-07T12:39:58.189Z,1001.27
2016-11-07T12:40:58.208Z,1001.29
2016-11-07T12:41:58.225Z,1001.27
2016-11-07T12:42:58.247Z,1001.28
2016-11-07T12:43:58.265Z,1001.28
2016-11-07T12:44:58.286Z,1001.28
2016-11-07T12:46:58.325Z,1001.25
2016-11-07T12:47:58.343Z,1001.3
2016-11-07T12:48:58.364Z,1001.33
2016-11-07T12:49:58.381Z,1001.27
2016-11-07T12:50:58.403Z,1001.37
2016-11-07T12:51:58.422Z,1001.34
2016-11-07T12:52:58.441Z,1001.36
2016-11-07T12:53:58.461Z,1001.35
2016-11-07T12:54:58.480Z,1001.34
2016-11-07T12:55:58.498Z,1001.36
2016-11-07T12:56:58.517Z,1001.33
2016-11-07T12:57:58.539Z,1001.36
2016-11-07T12:58:58.557Z,1001.35
2016-11-07T12:59:58.577Z,1001.34
2016-11-07T13:01:58.618Z,1001.41
2016-11-07T13:02:58.636Z,1001.41
2016-11-07T13:03:58.656Z,1001.4
2016-11-07T13:04:58.674Z,1001.48
2016-11-07T13:05:58.696Z,1001.47
2016-11-07T13:06:58.713Z,1001.47